首页
METAR-TAF:

METAR-TAF

机场 :

巴林国际机场

巴林, 巴林

纬度: 26-16N, 经度: 050-39E, 海拔: 2米

当前天气观测

该预报发布于30分钟前的15:00 UTC
风速8节,风向
温度 37°C
湿度 35%
气压 998 hPa
能见度10公里或以上
1500米以下无云,无积雨云

METAR: OBBI 161500Z 36008KT CAVOK 37/19 Q0998 NOSIG

时间: 18:30 (15:30 UTC)

预报

该预报发布于4小时和30分钟前的11:00 UTC
预报有效从16日的 12点(UTC)到 17日的 18点(UTC)
风速10节,风向西北
能见度10公里或以上
1500米以下无云,无积雨云

TAF: OBBI 161100Z 1612/1718 32010KT CAVOK

超过4000个机场的气象观测和天气预报(METAR&TAF报告)。

可查询的气象台以黄色和红色小点在地图上表示。

将鼠标移到小点上方,可查看气象台名称。

然后点击查看天气观测和预报。

如需切换地图:点击带黑十字的绿色按钮放大地图;点击带横线的绿色按钮缩小地图;或者点击绿色箭头查看邻近地区的地图。


METAR-TAF: